sensor_id;sensor_type;location;lat;lon;timestamp;pressure;altitude;pressure_sealevel;temperature;humidity
498;BME280;39559;48.630;9.162;2023-05-03T00:01:54;98239.94;;;5.55;100.00
498;BME280;39559;48.630;9.162;2023-05-03T00:04:20;98246.81;;;5.53;100.00
498;BME280;39559;48.630;9.162;2023-05-03T00:06:49;98239.84;;;5.60;100.00
498;BME280;39559;48.630;9.162;2023-05-03T00:09:15;98250.31;;;5.48;100.00
498;BME280;39559;48.630;9.162;2023-05-03T00:11:42;98246.00;;;5.50;100.00
498;BME280;39559;48.630;9.162;2023-05-03T00:14:09;98249.44;;;5.49;100.00
498;BME280;39559;48.630;9.162;2023-05-03T00:16:36;98244.28;;;5.47;100.00
498;BME280;39559;48.630;9.162;2023-05-03T00:19:02;98251.16;;;5.47;100.00
498;BME280;39559;48.630;9.162;2023-05-03T00:21:29;98247.84;;;5.38;100.00
498;BME280;39559;48.630;9.162;2023-05-03T00:25:56;98244.53;;;5.23;100.00
498;BME280;39559;48.630;9.162;2023-05-03T00:28:23;98247.06;;;5.27;100.00
498;BME280;39559;48.630;9.162;2023-05-03T00:30:50;98236.81;;;5.23;100.00
498;BME280;39559;48.630;9.162;2023-05-03T00:33:16;98247.09;;;5.23;100.00
498;BME280;39559;48.630;9.162;2023-05-03T00:35:43;98241.94;;;5.26;100.00
498;BME280;39559;48.630;9.162;2023-05-03T00:38:09;98243.56;;;5.33;100.00
498;BME280;39559;48.630;9.162;2023-05-03T00:40:35;98242.81;;;5.23;100.00
498;BME280;39559;48.630;9.162;2023-05-03T00:43:01;98247.13;;;5.21;100.00
498;BME280;39559;48.630;9.162;2023-05-03T00:45:29;98247.13;;;5.18;100.00
498;BME280;39559;48.630;9.162;2023-05-03T00:49:50;98237.72;;;5.15;100.00
498;BME280;39559;48.630;9.162;2023-05-03T00:52:23;98229.19;;;5.12;100.00
498;BME280;39559;48.630;9.162;2023-05-03T00:54:51;98234.41;;;5.01;100.00
498;BME280;39559;48.630;9.162;2023-05-03T00:57:18;98232.69;;;5.03;100.00
498;BME280;39559;48.630;9.162;2023-05-03T00:59:45;98229.22;;;5.06;100.00
498;BME280;39559;48.630;9.162;2023-05-03T01:02:10;98231.78;;;5.07;100.00
498;BME280;39559;48.630;9.162;2023-05-03T01:04:36;98233.50;;;5.10;100.00
498;BME280;39559;48.630;9.162;2023-05-03T01:07:10;98230.03;;;5.11;100.00
498;BME280;39559;48.630;9.162;2023-05-03T01:10:01;98230.13;;;5.00;100.00
498;BME280;39559;48.630;9.162;2023-05-03T01:13:54;98231.78;;;5.06;100.00
498;BME280;39559;48.630;9.162;2023-05-03T01:16:43;98225.84;;;5.00;100.00
498;BME280;39559;48.630;9.162;2023-05-03T01:19:36;98225.00;;;4.98;100.00
498;BME280;39559;48.630;9.162;2023-05-03T01:25:12;98229.28;;;4.96;100.00
498;BME280;39559;48.630;9.162;2023-05-03T01:27:39;98225.03;;;4.95;100.00
498;BME280;39559;48.630;9.162;2023-05-03T01:30:07;98219.78;;;5.06;100.00
498;BME280;39559;48.630;9.162;2023-05-03T01:37:51;98208.84;;;4.79;100.00
498;BME280;39559;48.630;9.162;2023-05-03T01:40:18;98208.84;;;4.79;100.00
498;BME280;39559;48.630;9.162;2023-05-03T01:42:46;98204.59;;;4.75;100.00
498;BME280;39559;48.630;9.162;2023-05-03T01:45:12;98206.28;;;4.76;100.00
498;BME280;39559;48.630;9.162;2023-05-03T01:47:38;98205.47;;;4.73;100.00
498;BME280;39559;48.630;9.162;2023-05-03T01:50:04;98208.97;;;4.64;100.00
498;BME280;39559;48.630;9.162;2023-05-03T01:52:30;98213.31;;;4.54;100.00
498;BME280;39559;48.630;9.162;2023-05-03T01:54:55;98209.06;;;4.47;100.00
498;BME280;39559;48.630;9.162;2023-05-03T01:57:21;98207.34;;;4.49;100.00
498;BME280;39559;48.630;9.162;2023-05-03T02:01:44;98212.59;;;4.37;100.00
498;BME280;39559;48.630;9.162;2023-05-03T02:04:10;98209.97;;;4.41;100.00
498;BME280;39559;48.630;9.162;2023-05-03T02:06:35;98212.53;;;4.43;100.00
498;BME280;39559;48.630;9.162;2023-05-03T02:09:01;98207.44;;;4.34;100.00
498;BME280;39559;48.630;9.162;2023-05-03T02:11:27;98212.59;;;4.34;100.00
498;BME280;39559;48.630;9.162;2023-05-03T02:13:53;98208.34;;;4.30;100.00
498;BME280;39559;48.630;9.162;2023-05-03T02:16:18;98204.03;;;4.32;100.00
498;BME280;39559;48.630;9.162;2023-05-03T02:18:48;98206.59;;;4.35;100.00
498;BME280;39559;48.630;9.162;2023-05-03T02:21:13;98210.03;;;4.34;100.00
498;BME280;39559;48.630;9.162;2023-05-03T02:25:43;98204.88;;;4.31;100.00
498;BME280;39559;48.630;9.162;2023-05-03T02:28:08;98204.03;;;4.32;100.00
498;BME280;39559;48.630;9.162;2023-05-03T02:30:34;98204.94;;;4.23;100.00
498;BME280;39559;48.630;9.162;2023-05-03T02:33:00;98207.56;;;4.17;100.00
498;BME280;39559;48.630;9.162;2023-05-03T02:35:25;98200.75;;;4.11;100.00
498;BME280;39559;48.630;9.162;2023-05-03T02:37:51;98199.91;;;4.01;100.00
498;BME280;39559;48.630;9.162;2023-05-03T02:40:17;98206.78;;;3.96;100.00
498;BME280;39559;48.630;9.162;2023-05-03T02:42:42;98206.78;;;3.98;100.00
498;BME280;39559;48.630;9.162;2023-05-03T02:45:08;98199.06;;;3.98;100.00
498;BME280;39559;48.630;9.162;2023-05-03T02:49:41;98196.50;;;4.01;100.00
498;BME280;39559;48.630;9.162;2023-05-03T02:52:08;98205.09;;;3.97;100.00
498;BME280;39559;48.630;9.162;2023-05-03T02:54:34;98194.81;;;3.98;100.00
498;BME280;39559;48.630;9.162;2023-05-03T02:57:00;98200.00;;;3.86;100.00
498;BME280;39559;48.630;9.162;2023-05-03T02:59:27;98206.84;;;3.82;100.00
498;BME280;39559;48.630;9.162;2023-05-03T03:01:52;98212.88;;;3.78;100.00
498;BME280;39559;48.630;9.162;2023-05-03T03:04:18;98212.84;;;3.83;100.00
498;BME280;39559;48.630;9.162;2023-05-03T03:06:44;98207.69;;;3.84;100.00
498;BME280;39559;48.630;9.162;2023-05-03T03:09:10;98211.16;;;3.73;100.00
498;BME280;39559;48.630;9.162;2023-05-03T03:13:40;98203.50;;;3.63;100.00
498;BME280;39559;48.630;9.162;2023-05-03T03:16:06;98206.97;;;3.53;100.00
498;BME280;39559;48.630;9.162;2023-05-03T03:18:33;98205.25;;;3.57;100.00
498;BME280;39559;48.630;9.162;2023-05-03T03:21:03;98203.53;;;3.57;100.00
498;BME280;39559;48.630;9.162;2023-05-03T03:23:29;98201.78;;;3.64;100.00
498;BME280;39559;48.630;9.162;2023-05-03T03:25:55;98200.91;;;3.71;100.00
498;BME280;39559;48.630;9.162;2023-05-03T03:28:20;98200.88;;;3.73;100.00
498;BME280;39559;48.630;9.162;2023-05-03T03:30:46;98197.50;;;3.63;100.00
498;BME280;39559;48.630;9.162;2023-05-03T03:33:16;98199.22;;;3.56;100.00
498;BME280;39559;48.630;9.162;2023-05-03T03:37:40;98198.38;;;3.57;100.00
498;BME280;39559;48.630;9.162;2023-05-03T03:40:06;98207.78;;;3.66;100.00
498;BME280;39559;48.630;9.162;2023-05-03T03:42:32;98205.22;;;3.63;100.00
498;BME280;39559;48.630;9.162;2023-05-03T03:44:57;98211.19;;;3.65;100.00
498;BME280;39559;48.630;9.162;2023-05-03T03:47:23;98213.75;;;3.68;100.00
498;BME280;39559;48.630;9.162;2023-05-03T03:49:48;98208.63;;;3.71;100.00
498;BME280;39559;48.630;9.162;2023-05-03T03:52:14;98203.47;;;3.71;100.00
498;BME280;39559;48.630;9.162;2023-05-03T03:54:40;98200.00;;;3.83;100.00
498;BME280;39559;48.630;9.162;2023-05-03T03:57:05;98208.63;;;3.63;100.00
498;BME280;39559;48.630;9.162;2023-05-03T04:01:38;98214.69;;;3.44;100.00
498;BME280;39559;48.630;9.162;2023-05-03T04:04:03;98214.66;;;3.45;100.00
498;BME280;39559;48.630;9.162;2023-05-03T04:06:29;98224.09;;;3.46;100.00
498;BME280;39559;48.630;9.162;2023-05-03T04:08:55;98218.94;;;3.45;100.00
498;BME280;39559;48.630;9.162;2023-05-03T04:11:21;98221.53;;;3.46;100.00
498;BME280;39559;48.630;9.162;2023-05-03T04:13:49;98225.78;;;3.49;100.00
498;BME280;39559;48.630;9.162;2023-05-03T04:16:14;98228.31;;;3.60;100.00
498;BME280;39559;48.630;9.162;2023-05-03T04:18:41;98236.88;;;3.65;100.00
498;BME280;39559;48.630;9.162;2023-05-03T04:21:07;98232.59;;;3.65;100.00
498;BME280;39559;48.630;9.162;2023-05-03T04:25:46;98241.94;;;3.87;100.00
498;BME280;39559;48.630;9.162;2023-05-03T04:28:13;98247.94;;;3.95;100.00
498;BME280;39559;48.630;9.162;2023-05-03T04:30:41;98247.91;;;3.99;100.00
498;BME280;39559;48.630;9.162;2023-05-03T04:33:12;98251.31;;;4.08;100.00
498;BME280;39559;48.630;9.162;2023-05-03T04:35:41;98253.84;;;4.12;100.00
498;BME280;39559;48.630;9.162;2023-05-03T04:38:06;98246.06;;;4.26;100.00
498;BME280;39559;48.630;9.162;2023-05-03T04:40:33;98253.75;;;4.31;100.00
498;BME280;39559;48.630;9.162;2023-05-03T04:42:59;98256.31;;;4.35;100.00
498;BME280;39559;48.630;9.162;2023-05-03T04:45:25;98250.25;;;4.44;100.00
498;BME280;39559;48.630;9.162;2023-05-03T04:49:36;98254.50;;;4.51;100.00
498;BME280;39559;48.630;9.162;2023-05-03T04:52:03;98253.63;;;4.57;100.00
498;BME280;39559;48.630;9.162;2023-05-03T04:54:29;98260.44;;;4.58;100.00
498;BME280;39559;48.630;9.162;2023-05-03T04:56:54;98259.47;;;4.80;100.00
498;BME280;39559;48.630;9.162;2023-05-03T04:59:21;98257.72;;;4.81;100.00
498;BME280;39559;48.630;9.162;2023-05-03T05:01:46;98255.09;;;4.86;100.00
498;BME280;39559;48.630;9.162;2023-05-03T05:04:14;98256.84;;;4.87;100.00
498;BME280;39559;48.630;9.162;2023-05-03T05:06:41;98256.81;;;4.88;100.00
498;BME280;39559;48.630;9.162;2023-05-03T05:09:24;98260.16;;;4.99;100.00
498;BME280;39559;48.630;9.162;2023-05-03T05:13:39;98261.00;;;5.05;100.00
498;BME280;39559;48.630;9.162;2023-05-03T05:16:05;98257.50;;;5.09;100.00
498;BME280;39559;48.630;9.162;2023-05-03T05:18:31;98258.44;;;5.02;100.00
498;BME280;39559;48.630;9.162;2023-05-03T05:20:57;98266.91;;;5.13;100.00
498;BME280;39559;48.630;9.162;2023-05-03T05:23:22;98258.25;;;5.23;100.00
498;BME280;39559;48.630;9.162;2023-05-03T05:25:48;98267.63;;;5.32;100.00
498;BME280;39559;48.630;9.162;2023-05-03T05:28:18;98265.03;;;5.33;100.00
498;BME280;39559;48.630;9.162;2023-05-03T05:30:44;98272.59;;;5.53;100.00
498;BME280;39559;48.630;9.162;2023-05-03T05:33:09;98271.69;;;5.54;100.00
498;BME280;39559;48.630;9.162;2023-05-03T05:37:34;98274.06;;;5.76;100.00
498;BME280;39559;48.630;9.162;2023-05-03T05:40:00;98271.47;;;5.77;100.00
498;BME280;39559;48.630;9.162;2023-05-03T05:42:26;98275.59;;;5.92;100.00
498;BME280;39559;48.630;9.162;2023-05-03T05:44:52;98268.59;;;6.08;100.00
498;BME280;39559;48.630;9.162;2023-05-03T05:47:19;98273.63;;;6.16;100.00
498;BME280;39559;48.630;9.162;2023-05-03T05:49:46;98272.69;;;6.23;100.00
498;BME280;39559;48.630;9.162;2023-05-03T05:52:13;98271.84;;;6.24;100.00
498;BME280;39559;48.630;9.162;2023-05-03T05:54:40;98267.38;;;6.37;100.00
498;BME280;39559;48.630;9.162;2023-05-03T05:57:06;98275.00;;;6.43;100.00
498;BME280;39559;48.630;9.162;2023-05-03T06:01:34;98268.78;;;6.60;100.00
498;BME280;39559;48.630;9.162;2023-05-03T06:04:00;98264.22;;;6.77;100.00
498;BME280;39559;48.630;9.162;2023-05-03T06:06:25;98266.69;;;6.85;100.00
498;BME280;39559;48.630;9.162;2023-05-03T06:08:51;98263.13;;;6.94;100.00
498;BME280;39559;48.630;9.162;2023-05-03T06:11:17;98259.63;;;6.96;100.00
498;BME280;39559;48.630;9.162;2023-05-03T06:13:43;98250.75;;;7.13;100.00
498;BME280;39559;48.630;9.162;2023-05-03T06:16:13;98255.53;;;7.36;100.00
498;BME280;39559;48.630;9.162;2023-05-03T06:18:39;98252.81;;;7.43;100.00
498;BME280;39559;48.630;9.162;2023-05-03T06:21:05;98257.91;;;7.48;100.00
498;BME280;39559;48.630;9.162;2023-05-03T06:25:34;98249.81;;;7.66;100.00
498;BME280;39559;48.630;9.162;2023-05-03T06:28:00;98251.25;;;7.83;100.00
498;BME280;39559;48.630;9.162;2023-05-03T06:30:26;98250.41;;;7.82;100.00
498;BME280;39559;48.630;9.162;2023-05-03T06:32:53;98253.66;;;7.91;100.00
498;BME280;39559;48.630;9.162;2023-05-03T06:35:18;98254.31;;;8.00;100.00
498;BME280;39559;48.630;9.162;2023-05-03T06:37:50;98253.50;;;8.00;100.00
498;BME280;39559;48.630;9.162;2023-05-03T06:40:16;98255.84;;;8.11;100.00
498;BME280;39559;48.630;9.162;2023-05-03T06:42:42;98249.88;;;8.08;100.00
498;BME280;39559;48.630;9.162;2023-05-03T06:45:08;98257.81;;;8.43;100.00
498;BME280;39559;48.630;9.162;2023-05-03T06:49:33;98256.78;;;8.52;100.00
498;BME280;39559;48.630;9.162;2023-05-03T06:51:59;98259.97;;;8.63;100.00
498;BME280;39559;48.630;9.162;2023-05-03T06:54:25;98257.69;;;8.48;100.00
498;BME280;39559;48.630;9.162;2023-05-03T06:56:50;98262.25;;;8.77;100.00
498;BME280;39559;48.630;9.162;2023-05-03T06:59:28;98263.28;;;8.70;100.00
498;BME280;39559;48.630;9.162;2023-05-03T07:01:55;98268.53;;;8.65;100.00
498;BME280;39559;48.630;9.162;2023-05-03T07:04:22;98264.19;;;8.67;100.00
498;BME280;39559;48.630;9.162;2023-05-03T07:06:49;98262.41;;;8.69;100.00
498;BME280;39559;48.630;9.162;2023-05-03T07:09:16;98263.97;;;8.76;100.00
498;BME280;39559;48.630;9.162;2023-05-03T07:13:31;98252.41;;;8.91;100.00
498;BME280;39559;48.630;9.162;2023-05-03T07:15:57;98248.94;;;8.92;100.00
498;BME280;39559;48.630;9.162;2023-05-03T07:18:23;98247.84;;;9.02;100.00
498;BME280;39559;48.630;9.162;2023-05-03T07:20:49;98244.16;;;9.11;100.00
498;BME280;39559;48.630;9.162;2023-05-03T07:23:15;98242.13;;;9.24;100.00
498;BME280;39559;48.630;9.162;2023-05-03T07:25:42;98243.66;;;9.31;100.00
498;BME280;39559;48.630;9.162;2023-05-03T07:28:08;98236.00;;;9.27;100.00
498;BME280;39559;48.630;9.162;2023-05-03T07:30:34;98235.50;;;9.47;100.00
498;BME280;39559;48.630;9.162;2023-05-03T07:33:07;98233.16;;;9.37;100.00
498;BME280;39559;48.630;9.162;2023-05-03T07:37:34;98233.91;;;9.41;100.00
498;BME280;39559;48.630;9.162;2023-05-03T07:40:04;98227.72;;;9.47;100.00
498;BME280;39559;48.630;9.162;2023-05-03T07:42:42;98235.38;;;9.51;100.00
498;BME280;39559;48.630;9.162;2023-05-03T07:45:09;98234.59;;;9.80;100.00
498;BME280;39559;48.630;9.162;2023-05-03T07:47:37;98226.56;;;9.90;100.00
498;BME280;39559;48.630;9.162;2023-05-03T07:50:06;98228.75;;;10.04;100.00
498;BME280;39559;48.630;9.162;2023-05-03T07:52:44;98227.97;;;10.31;100.00
498;BME280;39559;48.630;9.162;2023-05-03T07:55:10;98231.22;;;10.40;100.00
498;BME280;39559;48.630;9.162;2023-05-03T07:57:36;98224.88;;;10.50;100.00
498;BME280;39559;48.630;9.162;2023-05-03T08:01:30;98206.56;;;10.53;100.00
498;BME280;39559;48.630;9.162;2023-05-03T08:03:56;98212.44;;;10.88;100.00
498;BME280;39559;48.630;9.162;2023-05-03T08:06:32;98211.69;;;11.09;100.00
498;BME280;39559;48.630;9.162;2023-05-03T08:08:59;98205.78;;;11.31;100.00
498;BME280;39559;48.630;9.162;2023-05-03T08:11:28;98206.31;;;11.66;100.00
498;BME280;39559;48.630;9.162;2023-05-03T08:13:53;98208.84;;;11.67;100.00
498;BME280;39559;48.630;9.162;2023-05-03T08:16:19;98206.75;;;11.53;100.00
498;BME280;39559;48.630;9.162;2023-05-03T08:18:46;98207.28;;;11.38;100.00
498;BME280;39559;48.630;9.162;2023-05-03T08:21:11;98209.84;;;11.88;100.00
498;BME280;39559;48.630;9.162;2023-05-03T08:25:29;98216.09;;;11.84;100.00
498;BME280;39559;48.630;9.162;2023-05-03T08:27:54;98213.88;;;11.74;100.00
498;BME280;39559;48.630;9.162;2023-05-03T08:30:20;98212.47;;;11.63;100.00
498;BME280;39559;48.630;9.162;2023-05-03T08:32:50;98211.81;;;12.07;100.00
498;BME280;39559;48.630;9.162;2023-05-03T08:35:17;98206.25;;;12.16;100.00
498;BME280;39559;48.630;9.162;2023-05-03T08:37:44;98205.41;;;12.39;100.00
498;BME280;39559;48.630;9.162;2023-05-03T08:40:14;98210.41;;;12.44;100.00
498;BME280;39559;48.630;9.162;2023-05-03T08:42:41;98211.16;;;12.47;100.00
498;BME280;39559;48.630;9.162;2023-05-03T08:45:13;98203.63;;;12.84;100.00
498;BME280;39559;48.630;9.162;2023-05-03T08:49:29;98212.03;;;12.70;100.00
498;BME280;39559;48.630;9.162;2023-05-03T08:51:55;98208.75;;;12.87;100.00
498;BME280;39559;48.630;9.162;2023-05-03T08:54:26;98208.81;;;13.06;100.00
498;BME280;39559;48.630;9.162;2023-05-03T08:56:52;98197.69;;;13.02;100.00
498;BME280;39559;48.630;9.162;2023-05-03T08:59:17;98206.31;;;13.25;100.00
498;BME280;39559;48.630;9.162;2023-05-03T09:01:43;98207.78;;;13.32;100.00
498;BME280;39559;48.630;9.162;2023-05-03T09:04:14;98212.88;;;13.35;100.00
498;BME280;39559;48.630;9.162;2023-05-03T09:06:42;98206.59;;;13.60;100.00
498;BME280;39559;48.630;9.162;2023-05-03T09:09:08;98213.22;;;13.48;100.00
498;BME280;39559;48.630;9.162;2023-05-03T09:13:30;98226.38;;;13.66;100.00
498;BME280;39559;48.630;9.162;2023-05-03T09:15:58;98225.00;;;13.77;100.00
498;BME280;39559;48.630;9.162;2023-05-03T09:18:24;98224.16;;;13.56;100.00
498;BME280;39559;48.630;9.162;2023-05-03T09:20:51;98214.19;;;13.66;100.00
498;BME280;39559;48.630;9.162;2023-05-03T09:25:55;98215.66;;;13.92;100.00
498;BME280;39559;48.630;9.162;2023-05-03T09:28:21;98216.84;;;14.04;100.00
498;BME280;39559;48.630;9.162;2023-05-03T09:30:47;98216.53;;;13.72;100.00
498;BME280;39559;48.630;9.162;2023-05-03T09:33:15;98212.84;;;13.76;100.00
498;BME280;39559;48.630;9.162;2023-05-03T09:37:35;98205.38;;;14.08;100.00
498;BME280;39559;48.630;9.162;2023-05-03T09:40:04;98205.50;;;14.05;99.87
498;BME280;39559;48.630;9.162;2023-05-03T09:43:07;98201.81;;;14.09;100.00
498;BME280;39559;48.630;9.162;2023-05-03T09:45:34;98204.53;;;13.68;100.00
498;BME280;39559;48.630;9.162;2023-05-03T09:48:06;98202.47;;;13.75;98.54
498;BME280;39559;48.630;9.162;2023-05-03T09:50:34;98202.16;;;14.20;100.00
498;BME280;39559;48.630;9.162;2023-05-03T09:53:05;98187.81;;;14.86;98.02
498;BME280;39559;48.630;9.162;2023-05-03T09:55:33;98182.66;;;15.37;93.89
498;BME280;39559;48.630;9.162;2023-05-03T09:58:00;98189.81;;;15.51;92.17
498;BME280;39559;48.630;9.162;2023-05-03T10:01:25;98183.25;;;15.60;93.74
498;BME280;39559;48.630;9.162;2023-05-03T10:07:10;98186.06;;;15.22;91.12
498;BME280;39559;48.630;9.162;2023-05-03T10:09:41;98192.66;;;14.94;89.89
498;BME280;39559;48.630;9.162;2023-05-03T10:12:08;98186.88;;;14.87;91.46
498;BME280;39559;48.630;9.162;2023-05-03T10:14:45;98187.84;;;14.48;93.38
498;BME280;39559;48.630;9.162;2023-05-03T10:17:26;98187.13;;;14.64;92.75
498;BME280;39559;48.630;9.162;2023-05-03T10:19:55;98183.88;;;14.77;95.46
498;BME280;39559;48.630;9.162;2023-05-03T10:22:22;98179.28;;;14.64;90.10
498;BME280;39559;48.630;9.162;2023-05-03T10:25:27;98181.47;;;14.73;93.55
498;BME280;39559;48.630;9.162;2023-05-03T10:28:00;98176.28;;;14.90;87.04
498;BME280;39559;48.630;9.162;2023-05-03T10:32:55;98157.97;;;15.25;89.27
498;BME280;39559;48.630;9.162;2023-05-03T10:35:25;98168.44;;;14.90;88.08
498;BME280;39559;48.630;9.162;2023-05-03T10:37:51;98167.25;;;14.78;84.60
498;BME280;39559;48.630;9.162;2023-05-03T10:40:17;98162.31;;;15.60;91.21
498;BME280;39559;48.630;9.162;2023-05-03T10:45:57;98168.06;;;15.15;90.24
498;BME280;39559;48.630;9.162;2023-05-03T10:49:21;98164.97;;;14.90;89.33
498;BME280;39559;48.630;9.162;2023-05-03T10:51:47;98160.47;;;14.74;90.23
498;BME280;39559;48.630;9.162;2023-05-03T10:54:14;98163.38;;;15.05;90.66
498;BME280;39559;48.630;9.162;2023-05-03T10:56:56;98148.28;;;14.92;85.04
498;BME280;39559;48.630;9.162;2023-05-03T10:59:24;98151.81;;;15.09;90.31
498;BME280;39559;48.630;9.162;2023-05-03T11:01:55;98157.72;;;15.47;87.18
498;BME280;39559;48.630;9.162;2023-05-03T11:04:31;98148.66;;;15.70;85.29
498;BME280;39559;48.630;9.162;2023-05-03T11:07:00;98147.81;;;15.70;87.67
498;BME280;39559;48.630;9.162;2023-05-03T11:09:32;98143.72;;;15.82;78.73
498;BME280;39559;48.630;9.162;2023-05-03T11:13:25;98142.84;;;15.48;81.71
498;BME280;39559;48.630;9.162;2023-05-03T11:15:54;98144.94;;;15.41;79.51
498;BME280;39559;48.630;9.162;2023-05-03T11:18:21;98134.97;;;15.65;78.74
498;BME280;39559;48.630;9.162;2023-05-03T11:20:47;98136.66;;;16.00;77.13
498;BME280;39559;48.630;9.162;2023-05-03T11:23:14;98128.31;;;16.25;79.47
498;BME280;39559;48.630;9.162;2023-05-03T11:25:39;98127.50;;;16.70;77.74
498;BME280;39559;48.630;9.162;2023-05-03T11:31:11;98125.84;;;16.38;71.85
498;BME280;39559;48.630;9.162;2023-05-03T11:33:38;98117.28;;;16.50;72.59
498;BME280;39559;48.630;9.162;2023-05-03T11:37:15;98119.25;;;16.77;72.23
498;BME280;39559;48.630;9.162;2023-05-03T11:39:41;98114.16;;;17.20;69.54
498;BME280;39559;48.630;9.162;2023-05-03T11:42:07;98114.00;;;17.23;67.39
498;BME280;39559;48.630;9.162;2023-05-03T11:44:33;98109.00;;;17.18;70.30
498;BME280;39559;48.630;9.162;2023-05-03T11:47:01;98108.41;;;17.13;67.34
498;BME280;39559;48.630;9.162;2023-05-03T11:49:28;98112.53;;;17.03;63.43
498;BME280;39559;48.630;9.162;2023-05-03T11:52:01;98110.69;;;17.19;62.79
498;BME280;39559;48.630;9.162;2023-05-03T11:54:27;98101.06;;;17.49;56.50
498;BME280;39559;48.630;9.162;2023-05-03T11:57:11;98109.09;;;18.17;58.59
498;BME280;39559;48.630;9.162;2023-05-03T12:01:11;98101.59;;;18.11;56.94
498;BME280;39559;48.630;9.162;2023-05-03T12:03:36;98099.28;;;18.34;54.35
498;BME280;39559;48.630;9.162;2023-05-03T12:06:03;98103.25;;;18.54;55.04
498;BME280;39559;48.630;9.162;2023-05-03T12:08:32;98095.47;;;18.52;54.78
498;BME280;39559;48.630;9.162;2023-05-03T12:11:01;98090.28;;;18.78;54.80
498;BME280;39559;48.630;9.162;2023-05-03T12:13:36;98084.28;;;18.76;53.95
498;BME280;39559;48.630;9.162;2023-05-03T12:16:03;98089.09;;;18.15;54.85
498;BME280;39559;48.630;9.162;2023-05-03T12:18:49;98078.97;;;18.63;55.37
498;BME280;39559;48.630;9.162;2023-05-03T12:21:24;98071.19;;;19.27;56.31
498;BME280;39559;48.630;9.162;2023-05-03T12:25:05;98075.63;;;18.74;55.38
498;BME280;39559;48.630;9.162;2023-05-03T12:27:32;98081.34;;;18.26;56.75
498;BME280;39559;48.630;9.162;2023-05-03T12:29:57;98079.69;;;18.92;56.05
498;BME280;39559;48.630;9.162;2023-05-03T12:32:23;98070.63;;;18.84;53.24
498;BME280;39559;48.630;9.162;2023-05-03T12:34:48;98067.22;;;18.14;53.15
498;BME280;39559;48.630;9.162;2023-05-03T12:37:15;98078.63;;;18.55;56.19
498;BME280;39559;48.630;9.162;2023-05-03T12:39:41;98078.13;;;19.03;48.99
498;BME280;39559;48.630;9.162;2023-05-03T12:42:07;98077.72;;;19.22;50.54
498;BME280;39559;48.630;9.162;2023-05-03T12:44:33;98088.00;;;18.99;50.52
498;BME280;39559;48.630;9.162;2023-05-03T12:49:02;98070.88;;;19.32;49.30
498;BME280;39559;48.630;9.162;2023-05-03T12:51:29;98065.63;;;18.39;50.66
498;BME280;39559;48.630;9.162;2023-05-03T12:53:57;98068.47;;;18.09;51.14
498;BME280;39559;48.630;9.162;2023-05-03T12:56:23;98062.53;;;18.87;52.26
498;BME280;39559;48.630;9.162;2023-05-03T12:58:48;98064.56;;;18.96;52.45
498;BME280;39559;48.630;9.162;2023-05-03T13:01:14;98058.69;;;18.78;52.33
498;BME280;39559;48.630;9.162;2023-05-03T13:03:41;98051.78;;;18.90;56.23
498;BME280;39559;48.630;9.162;2023-05-03T13:06:07;98046.97;;;18.96;52.47
498;BME280;39559;48.630;9.162;2023-05-03T13:08:33;98048.91;;;18.80;51.94
498;BME280;39559;48.630;9.162;2023-05-03T13:13:00;98044.72;;;18.77;51.14
498;BME280;39559;48.630;9.162;2023-05-03T13:15:26;98043.41;;;18.57;49.78
498;BME280;39559;48.630;9.162;2023-05-03T13:17:51;98039.84;;;18.71;51.61
498;BME280;39559;48.630;9.162;2023-05-03T13:20:18;98036.22;;;17.92;52.38
498;BME280;39559;48.630;9.162;2023-05-03T13:22:45;98041.09;;;18.66;51.33
498;BME280;39559;48.630;9.162;2023-05-03T13:25:11;98035.69;;;18.82;49.44
498;BME280;39559;48.630;9.162;2023-05-03T13:27:37;98030.13;;;19.37;45.63
498;BME280;39559;48.630;9.162;2023-05-03T13:30:03;98021.50;;;20.09;44.17
498;BME280;39559;48.630;9.162;2023-05-03T13:32:29;98023.75;;;19.53;47.19
498;BME280;39559;48.630;9.162;2023-05-03T13:36:56;98021.03;;;19.91;48.83
498;BME280;39559;48.630;9.162;2023-05-03T13:39:22;98014.94;;;19.41;50.00
498;BME280;39559;48.630;9.162;2023-05-03T13:41:48;98020.31;;;19.40;49.54
498;BME280;39559;48.630;9.162;2023-05-03T13:44:14;98012.44;;;19.14;50.33
498;BME280;39559;48.630;9.162;2023-05-03T13:46:39;98018.84;;;19.23;50.71
498;BME280;39559;48.630;9.162;2023-05-03T13:49:06;98010.72;;;19.26;48.52
498;BME280;39559;48.630;9.162;2023-05-03T13:51:35;98013.56;;;18.44;52.66
498;BME280;39559;48.630;9.162;2023-05-03T13:54:03;98013.31;;;18.61;51.31
498;BME280;39559;48.630;9.162;2023-05-03T13:56:29;98010.59;;;18.76;51.65
498;BME280;39559;48.630;9.162;2023-05-03T14:00:52;98007.38;;;18.45;49.19
498;BME280;39559;48.630;9.162;2023-05-03T14:03:17;98008.72;;;17.83;49.92
498;BME280;39559;48.630;9.162;2023-05-03T14:05:43;98009.72;;;17.95;52.07
498;BME280;39559;48.630;9.162;2023-05-03T14:08:09;98002.47;;;18.26;54.68
498;BME280;39559;48.630;9.162;2023-05-03T14:10:35;98005.84;;;18.68;54.38
498;BME280;39559;48.630;9.162;2023-05-03T14:13:00;98001.78;;;19.03;52.44
498;BME280;39559;48.630;9.162;2023-05-03T14:15:27;97995.53;;;19.42;50.97
498;BME280;39559;48.630;9.162;2023-05-03T14:17:55;98000.00;;;19.29;46.50
498;BME280;39559;48.630;9.162;2023-05-03T14:20:21;97985.88;;;19.80;45.87
498;BME280;39559;48.630;9.162;2023-05-03T14:24:48;97986.28;;;19.24;47.32
498;BME280;39559;48.630;9.162;2023-05-03T14:27:14;97989.31;;;18.79;49.82
498;BME280;39559;48.630;9.162;2023-05-03T14:29:42;97995.78;;;18.35;49.76
498;BME280;39559;48.630;9.162;2023-05-03T14:32:07;97992.28;;;17.94;55.23
498;BME280;39559;48.630;9.162;2023-05-03T14:34:34;97994.63;;;17.57;55.21
498;BME280;39559;48.630;9.162;2023-05-03T14:36:59;97985.94;;;17.70;54.05
498;BME280;39559;48.630;9.162;2023-05-03T14:39:25;97970.25;;;18.10;53.83
498;BME280;39559;48.630;9.162;2023-05-03T14:41:50;97975.16;;;18.29;54.91
498;BME280;39559;48.630;9.162;2023-05-03T14:44:16;97972.22;;;18.33;52.03
498;BME280;39559;48.630;9.162;2023-05-03T14:48:42;97955.34;;;18.63;48.78